sensor_id;sensor_type;location;lat;lon;timestamp;pressure;altitude;pressure_sealevel;temperature;humidity
79136;BME280;68533;51.090;17.216;2023-10-31T00:01:36;98277.31;;;14.02;100.00
79136;BME280;68533;51.090;17.216;2023-10-31T00:04:01;98272.25;;;14.04;100.00
79136;BME280;68533;51.090;17.216;2023-10-31T00:06:28;98268.50;;;14.12;100.00
79136;BME280;68533;51.090;17.216;2023-10-31T00:08:54;98255.47;;;14.13;100.00
79136;BME280;68533;51.090;17.216;2023-10-31T00:11:20;98249.16;;;14.12;100.00
79136;BME280;68533;51.090;17.216;2023-10-31T00:13:46;98254.38;;;14.17;100.00
79136;BME280;68533;51.090;17.216;2023-10-31T00:16:12;98248.88;;;14.17;100.00
79136;BME280;68533;51.090;17.216;2023-10-31T00:18:38;98253.53;;;14.13;100.00
79136;BME280;68533;51.090;17.216;2023-10-31T00:21:05;98252.25;;;14.11;100.00
79136;BME280;68533;51.090;17.216;2023-10-31T00:23:31;98249.31;;;14.19;100.00
79136;BME280;68533;51.090;17.216;2023-10-31T00:25:57;98236.75;;;14.22;100.00
79136;BME280;68533;51.090;17.216;2023-10-31T00:28:23;98237.97;;;14.24;100.00
79136;BME280;68533;51.090;17.216;2023-10-31T00:30:54;98249.47;;;14.26;100.00
79136;BME280;68533;51.090;17.216;2023-10-31T00:33:21;98245.53;;;14.27;100.00
79136;BME280;68533;51.090;17.216;2023-10-31T00:35:47;98244.28;;;14.25;100.00
79136;BME280;68533;51.090;17.216;2023-10-31T00:38:13;98233.69;;;14.27;100.00
79136;BME280;68533;51.090;17.216;2023-10-31T00:40:39;98230.28;;;14.33;100.00
79136;BME280;68533;51.090;17.216;2023-10-31T00:43:05;98214.50;;;14.34;100.00
79136;BME280;68533;51.090;17.216;2023-10-31T00:45:31;98209.31;;;14.32;100.00
79136;BME280;68533;51.090;17.216;2023-10-31T00:47:57;98202.28;;;14.35;100.00
79136;BME280;68533;51.090;17.216;2023-10-31T00:50:23;98200.19;;;14.48;100.00
79136;BME280;68533;51.090;17.216;2023-10-31T00:52:49;98196.91;;;14.42;100.00
79136;BME280;68533;51.090;17.216;2023-10-31T00:55:16;98189.44;;;14.43;100.00
79136;BME280;68533;51.090;17.216;2023-10-31T00:57:42;98182.66;;;14.40;100.00
79136;BME280;68533;51.090;17.216;2023-10-31T01:00:09;98176.75;;;14.42;100.00
79136;BME280;68533;51.090;17.216;2023-10-31T01:02:35;98160.88;;;14.38;100.00
79136;BME280;68533;51.090;17.216;2023-10-31T01:05:01;98164.09;;;14.41;100.00
79136;BME280;68533;51.090;17.216;2023-10-31T01:07:27;98160.09;;;14.38;100.00
79136;BME280;68533;51.090;17.216;2023-10-31T01:09:55;98152.25;;;14.40;100.00
79136;BME280;68533;51.090;17.216;2023-10-31T01:12:20;98153.63;;;14.50;100.00
79136;BME280;68533;51.090;17.216;2023-10-31T01:14:47;98142.56;;;14.50;100.00
79136;BME280;68533;51.090;17.216;2023-10-31T01:17:13;98141.09;;;14.36;100.00
79136;BME280;68533;51.090;17.216;2023-10-31T01:19:39;98131.03;;;14.28;100.00
79136;BME280;68533;51.090;17.216;2023-10-31T01:22:05;98126.47;;;14.36;100.00
79136;BME280;68533;51.090;17.216;2023-10-31T01:24:33;98111.84;;;14.35;100.00
79136;BME280;68533;51.090;17.216;2023-10-31T01:27:01;98110.03;;;14.43;100.00
79136;BME280;68533;51.090;17.216;2023-10-31T01:29:27;98106.97;;;14.48;100.00
79136;BME280;68533;51.090;17.216;2023-10-31T01:31:55;98113.97;;;14.42;100.00
79136;BME280;68533;51.090;17.216;2023-10-31T01:34:22;98108.34;;;14.38;100.00
79136;BME280;68533;51.090;17.216;2023-10-31T01:36:48;98116.13;;;14.33;100.00
79136;BME280;68533;51.090;17.216;2023-10-31T01:39:14;98110.84;;;14.44;100.00
79136;BME280;68533;51.090;17.216;2023-10-31T01:41:42;98107.56;;;14.38;100.00
79136;BME280;68533;51.090;17.216;2023-10-31T01:44:10;98107.78;;;14.29;100.00
79136;BME280;68533;51.090;17.216;2023-10-31T01:46:36;98102.50;;;14.24;100.00
79136;BME280;68533;51.090;17.216;2023-10-31T01:49:03;98102.97;;;14.26;100.00
79136;BME280;68533;51.090;17.216;2023-10-31T01:51:29;98096.94;;;14.21;100.00
79136;BME280;68533;51.090;17.216;2023-10-31T01:53:58;98088.75;;;14.09;100.00
79136;BME280;68533;51.090;17.216;2023-10-31T01:56:25;98088.63;;;14.02;100.00
79136;BME280;68533;51.090;17.216;2023-10-31T01:58:52;98074.53;;;14.07;100.00
79136;BME280;68533;51.090;17.216;2023-10-31T02:01:19;98069.81;;;14.07;100.00
79136;BME280;68533;51.090;17.216;2023-10-31T02:03:45;98058.31;;;14.05;100.00
79136;BME280;68533;51.090;17.216;2023-10-31T02:06:11;98065.50;;;14.10;100.00
79136;BME280;68533;51.090;17.216;2023-10-31T02:08:37;98060.31;;;14.08;100.00
79136;BME280;68533;51.090;17.216;2023-10-31T02:11:03;98065.78;;;14.05;100.00
79136;BME280;68533;51.090;17.216;2023-10-31T02:13:32;98063.75;;;14.02;100.00
79136;BME280;68533;51.090;17.216;2023-10-31T02:15:58;98064.13;;;14.00;100.00
79136;BME280;68533;51.090;17.216;2023-10-31T02:18:25;98058.22;;;14.02;100.00
79136;BME280;68533;51.090;17.216;2023-10-31T02:20:50;98043.25;;;14.03;100.00
79136;BME280;68533;51.090;17.216;2023-10-31T02:23:17;98044.22;;;13.91;100.00
79136;BME280;68533;51.090;17.216;2023-10-31T02:25:43;98033.16;;;13.91;100.00
79136;BME280;68533;51.090;17.216;2023-10-31T02:28:10;98041.28;;;13.84;100.00
79136;BME280;68533;51.090;17.216;2023-10-31T02:30:35;98046.28;;;13.78;100.00
79136;BME280;68533;51.090;17.216;2023-10-31T02:33:02;98050.28;;;13.81;100.00
79136;BME280;68533;51.090;17.216;2023-10-31T02:35:28;98036.44;;;13.77;100.00
79136;BME280;68533;51.090;17.216;2023-10-31T02:37:54;98025.78;;;13.79;100.00
79136;BME280;68533;51.090;17.216;2023-10-31T02:40:20;98028.06;;;13.74;100.00
79136;BME280;68533;51.090;17.216;2023-10-31T02:42:46;98020.22;;;13.76;100.00
79136;BME280;68533;51.090;17.216;2023-10-31T02:45:13;98014.25;;;13.74;100.00
79136;BME280;68533;51.090;17.216;2023-10-31T02:47:39;98016.28;;;13.77;100.00
79136;BME280;68533;51.090;17.216;2023-10-31T02:50:05;98013.75;;;13.68;100.00
79136;BME280;68533;51.090;17.216;2023-10-31T02:52:33;98017.56;;;13.64;100.00
79136;BME280;68533;51.090;17.216;2023-10-31T02:54:59;98012.44;;;13.62;100.00
79136;BME280;68533;51.090;17.216;2023-10-31T02:57:25;98014.97;;;13.71;100.00
79136;BME280;68533;51.090;17.216;2023-10-31T02:59:52;98009.81;;;13.69;100.00
79136;BME280;68533;51.090;17.216;2023-10-31T03:02:18;98002.09;;;13.78;100.00
79136;BME280;68533;51.090;17.216;2023-10-31T03:04:44;98009.00;;;13.88;100.00
79136;BME280;68533;51.090;17.216;2023-10-31T03:07:10;98006.75;;;13.93;100.00
79136;BME280;68533;51.090;17.216;2023-10-31T03:09:36;98004.91;;;14.01;100.00
79136;BME280;68533;51.090;17.216;2023-10-31T03:12:03;97998.75;;;14.08;100.00
79136;BME280;68533;51.090;17.216;2023-10-31T03:14:29;98003.25;;;13.96;100.00
79136;BME280;68533;51.090;17.216;2023-10-31T03:16:58;97998.75;;;14.08;100.00
79136;BME280;68533;51.090;17.216;2023-10-31T03:19:24;97997.16;;;14.07;100.00
79136;BME280;68533;51.090;17.216;2023-10-31T03:21:50;98002.59;;;14.03;100.00
79136;BME280;68533;51.090;17.216;2023-10-31T03:24:16;97997.34;;;14.17;100.00
79136;BME280;68533;51.090;17.216;2023-10-31T03:26:42;98000.84;;;14.14;100.00
79136;BME280;68533;51.090;17.216;2023-10-31T03:29:08;98002.16;;;14.20;100.00
79136;BME280;68533;51.090;17.216;2023-10-31T03:31:34;97985.56;;;14.20;100.00
79136;BME280;68533;51.090;17.216;2023-10-31T03:33:59;97987.59;;;14.23;100.00
79136;BME280;68533;51.090;17.216;2023-10-31T03:36:26;97979.16;;;14.16;100.00
79136;BME280;68533;51.090;17.216;2023-10-31T03:38:51;97973.00;;;14.46;100.00
79136;BME280;68533;51.090;17.216;2023-10-31T03:41:17;97970.75;;;14.51;100.00
79136;BME280;68533;51.090;17.216;2023-10-31T03:43:43;97964.94;;;14.60;100.00
79136;BME280;68533;51.090;17.216;2023-10-31T03:46:11;97958.69;;;14.63;100.00
79136;BME280;68533;51.090;17.216;2023-10-31T03:48:37;97967.41;;;14.65;100.00
79136;BME280;68533;51.090;17.216;2023-10-31T03:51:03;97956.34;;;14.65;100.00
79136;BME280;68533;51.090;17.216;2023-10-31T03:53:29;97948.09;;;14.68;100.00
79136;BME280;68533;51.090;17.216;2023-10-31T03:55:55;97948.53;;;14.70;100.00
79136;BME280;68533;51.090;17.216;2023-10-31T03:58:21;97949.09;;;14.57;100.00
79136;BME280;68533;51.090;17.216;2023-10-31T04:00:53;97931.16;;;14.47;100.00
79136;BME280;68533;51.090;17.216;2023-10-31T04:03:19;97931.47;;;14.42;100.00
79136;BME280;68533;51.090;17.216;2023-10-31T04:05:48;97930.88;;;14.52;100.00
79136;BME280;68533;51.090;17.216;2023-10-31T04:08:13;97928.59;;;14.58;100.00
79136;BME280;68533;51.090;17.216;2023-10-31T04:10:39;97918.47;;;14.69;100.00
79136;BME280;68533;51.090;17.216;2023-10-31T04:13:05;97931.09;;;14.93;100.00
79136;BME280;68533;51.090;17.216;2023-10-31T04:15:31;97925.06;;;15.13;98.18
79136;BME280;68533;51.090;17.216;2023-10-31T04:17:57;97943.34;;;15.18;97.68
79136;BME280;68533;51.090;17.216;2023-10-31T04:20:23;97970.28;;;15.51;94.59
79136;BME280;68533;51.090;17.216;2023-10-31T04:22:49;97963.91;;;15.77;92.60
79136;BME280;68533;51.090;17.216;2023-10-31T04:25:15;97963.34;;;15.98;90.89
79136;BME280;68533;51.090;17.216;2023-10-31T04:27:41;97965.34;;;16.01;90.76
79136;BME280;68533;51.090;17.216;2023-10-31T04:30:07;97963.44;;;16.05;90.00
79136;BME280;68533;51.090;17.216;2023-10-31T04:32:34;97959.03;;;16.00;90.66
79136;BME280;68533;51.090;17.216;2023-10-31T04:35:00;97957.53;;;16.10;89.34
79136;BME280;68533;51.090;17.216;2023-10-31T04:37:25;97963.47;;;16.08;89.63
79136;BME280;68533;51.090;17.216;2023-10-31T04:39:52;97951.03;;;15.95;90.50
79136;BME280;68533;51.090;17.216;2023-10-31T04:42:17;97960.59;;;15.98;90.33
79136;BME280;68533;51.090;17.216;2023-10-31T04:44:46;97957.69;;;15.87;91.59
79136;BME280;68533;51.090;17.216;2023-10-31T04:47:12;97963.13;;;15.76;92.34
79136;BME280;68533;51.090;17.216;2023-10-31T04:49:38;97958.75;;;15.75;92.05
79136;BME280;68533;51.090;17.216;2023-10-31T04:52:06;97962.03;;;15.84;91.39
79136;BME280;68533;51.090;17.216;2023-10-31T04:54:32;97964.28;;;15.75;92.68
79136;BME280;68533;51.090;17.216;2023-10-31T04:56:58;97961.59;;;15.82;91.65
79136;BME280;68533;51.090;17.216;2023-10-31T04:59:26;97961.09;;;15.73;93.36
79136;BME280;68533;51.090;17.216;2023-10-31T05:01:52;97966.88;;;15.61;93.97
79136;BME280;68533;51.090;17.216;2023-10-31T05:04:18;97956.78;;;15.49;94.87
79136;BME280;68533;51.090;17.216;2023-10-31T05:06:43;97952.81;;;15.47;94.84
79136;BME280;68533;51.090;17.216;2023-10-31T05:09:10;97950.84;;;15.47;94.50
79136;BME280;68533;51.090;17.216;2023-10-31T05:11:38;97948.09;;;15.47;94.48
79136;BME280;68533;51.090;17.216;2023-10-31T05:14:04;97947.56;;;15.38;95.52
79136;BME280;68533;51.090;17.216;2023-10-31T05:16:39;97943.56;;;15.36;95.27
79136;BME280;68533;51.090;17.216;2023-10-31T05:19:05;97942.28;;;15.30;96.15
79136;BME280;68533;51.090;17.216;2023-10-31T05:21:31;97952.53;;;15.26;96.24
79136;BME280;68533;51.090;17.216;2023-10-31T05:23:57;97950.56;;;15.26;96.20
79136;BME280;68533;51.090;17.216;2023-10-31T05:26:23;97945.03;;;15.26;96.45
79136;BME280;68533;51.090;17.216;2023-10-31T05:28:53;97935.34;;;15.13;97.51
79136;BME280;68533;51.090;17.216;2023-10-31T05:31:19;97930.06;;;15.04;98.09
79136;BME280;68533;51.090;17.216;2023-10-31T05:33:45;97934.34;;;14.98;99.82
79136;BME280;68533;51.090;17.216;2023-10-31T05:36:18;97934.34;;;15.28;97.06
79136;BME280;68533;51.090;17.216;2023-10-31T05:38:45;97951.47;;;15.34;96.52
79136;BME280;68533;51.090;17.216;2023-10-31T05:41:11;97953.38;;;15.30;98.45
79136;BME280;68533;51.090;17.216;2023-10-31T05:43:37;97956.50;;;15.28;98.97
79136;BME280;68533;51.090;17.216;2023-10-31T05:46:03;97965.41;;;15.14;100.00
79136;BME280;68533;51.090;17.216;2023-10-31T05:48:31;97977.88;;;15.01;100.00
79136;BME280;68533;51.090;17.216;2023-10-31T05:50:57;97980.44;;;14.87;100.00
79136;BME280;68533;51.090;17.216;2023-10-31T05:53:26;97969.31;;;14.61;100.00
79136;BME280;68533;51.090;17.216;2023-10-31T05:55:52;97979.53;;;14.37;100.00
79136;BME280;68533;51.090;17.216;2023-10-31T05:58:18;97983.56;;;14.40;100.00
79136;BME280;68533;51.090;17.216;2023-10-31T06:00:44;97986.38;;;14.21;100.00
79136;BME280;68533;51.090;17.216;2023-10-31T06:03:10;97986.59;;;14.12;100.00
79136;BME280;68533;51.090;17.216;2023-10-31T06:05:36;97987.53;;;14.00;100.00
79136;BME280;68533;51.090;17.216;2023-10-31T06:08:03;97989.63;;;13.84;100.00
79136;BME280;68533;51.090;17.216;2023-10-31T06:10:29;97995.78;;;13.78;100.00
79136;BME280;68533;51.090;17.216;2023-10-31T06:12:55;98000.66;;;13.65;100.00
79136;BME280;68533;51.090;17.216;2023-10-31T06:15:21;98007.41;;;13.68;100.00
79136;BME280;68533;51.090;17.216;2023-10-31T06:17:48;98011.53;;;13.58;100.00
79136;BME280;68533;51.090;17.216;2023-10-31T06:20:13;98018.34;;;13.45;100.00
79136;BME280;68533;51.090;17.216;2023-10-31T06:22:39;98019.06;;;13.42;100.00
79136;BME280;68533;51.090;17.216;2023-10-31T06:25:06;98023.31;;;13.55;100.00
79136;BME280;68533;51.090;17.216;2023-10-31T06:27:32;98030.09;;;13.42;100.00
79136;BME280;68533;51.090;17.216;2023-10-31T06:29:58;98031.13;;;13.34;100.00
79136;BME280;68533;51.090;17.216;2023-10-31T06:32:24;98039.78;;;13.32;100.00
79136;BME280;68533;51.090;17.216;2023-10-31T06:34:50;98046.91;;;13.33;100.00
79136;BME280;68533;51.090;17.216;2023-10-31T06:37:16;98043.75;;;13.35;100.00
79136;BME280;68533;51.090;17.216;2023-10-31T06:39:42;98039.94;;;13.39;100.00
79136;BME280;68533;51.090;17.216;2023-10-31T06:42:09;98052.47;;;13.37;100.00
79136;BME280;68533;51.090;17.216;2023-10-31T06:44:35;98037.44;;;13.34;100.00
79136;BME280;68533;51.090;17.216;2023-10-31T06:47:01;98052.31;;;13.30;100.00
79136;BME280;68533;51.090;17.216;2023-10-31T06:49:27;98056.16;;;13.25;100.00
79136;BME280;68533;51.090;17.216;2023-10-31T06:51:53;98060.09;;;13.24;100.00
79136;BME280;68533;51.090;17.216;2023-10-31T06:54:19;98060.34;;;13.19;100.00
79136;BME280;68533;51.090;17.216;2023-10-31T06:56:45;98061.41;;;13.14;100.00
79136;BME280;68533;51.090;17.216;2023-10-31T06:59:13;98065.34;;;13.13;100.00
79136;BME280;68533;51.090;17.216;2023-10-31T07:01:39;98074.88;;;13.16;100.00
79136;BME280;68533;51.090;17.216;2023-10-31T07:04:08;98084.31;;;13.15;100.00
79136;BME280;68533;51.090;17.216;2023-10-31T07:06:35;98095.34;;;13.15;100.00
79136;BME280;68533;51.090;17.216;2023-10-31T07:09:01;98105.91;;;13.13;100.00
79136;BME280;68533;51.090;17.216;2023-10-31T07:11:31;98104.28;;;13.12;100.00
79136;BME280;68533;51.090;17.216;2023-10-31T07:14:01;98105.47;;;13.11;100.00
79136;BME280;68533;51.090;17.216;2023-10-31T07:16:28;98106.72;;;13.13;100.00
79136;BME280;68533;51.090;17.216;2023-10-31T07:18:55;98107.78;;;13.09;100.00
79136;BME280;68533;51.090;17.216;2023-10-31T07:21:21;98101.34;;;13.05;100.00
79136;BME280;68533;51.090;17.216;2023-10-31T07:23:46;98106.44;;;13.03;100.00
79136;BME280;68533;51.090;17.216;2023-10-31T07:26:13;98103.22;;;13.01;100.00
79136;BME280;68533;51.090;17.216;2023-10-31T07:28:39;98110.00;;;13.03;100.00
79136;BME280;68533;51.090;17.216;2023-10-31T07:31:07;98114.34;;;13.04;100.00
79136;BME280;68533;51.090;17.216;2023-10-31T07:33:34;98112.78;;;13.03;100.00
79136;BME280;68533;51.090;17.216;2023-10-31T07:36:03;98116.41;;;13.07;100.00
79136;BME280;68533;51.090;17.216;2023-10-31T07:38:29;98129.75;;;13.05;100.00
79136;BME280;68533;51.090;17.216;2023-10-31T07:40:56;98134.47;;;13.05;100.00
79136;BME280;68533;51.090;17.216;2023-10-31T07:43:22;98152.63;;;13.06;100.00
79136;BME280;68533;51.090;17.216;2023-10-31T07:45:48;98169.38;;;13.13;100.00
79136;BME280;68533;51.090;17.216;2023-10-31T07:48:17;98162.81;;;13.33;100.00
79136;BME280;68533;51.090;17.216;2023-10-31T07:50:44;98171.09;;;13.33;100.00
79136;BME280;68533;51.090;17.216;2023-10-31T07:53:09;98177.97;;;13.39;100.00
79136;BME280;68533;51.090;17.216;2023-10-31T07:55:40;98184.09;;;13.33;100.00
79136;BME280;68533;51.090;17.216;2023-10-31T07:58:07;98201.88;;;13.19;100.00
79136;BME280;68533;51.090;17.216;2023-10-31T08:00:36;98211.22;;;13.15;100.00
79136;BME280;68533;51.090;17.216;2023-10-31T08:03:03;98222.94;;;13.12;100.00
79136;BME280;68533;51.090;17.216;2023-10-31T08:05:29;98226.72;;;13.19;100.00
79136;BME280;68533;51.090;17.216;2023-10-31T08:07:55;98230.91;;;13.13;100.00
79136;BME280;68533;51.090;17.216;2023-10-31T08:10:21;98244.69;;;13.13;100.00
79136;BME280;68533;51.090;17.216;2023-10-31T08:12:47;98241.81;;;13.10;100.00
79136;BME280;68533;51.090;17.216;2023-10-31T08:15:14;98247.69;;;13.08;100.00
79136;BME280;68533;51.090;17.216;2023-10-31T08:17:41;98253.63;;;12.95;100.00
79136;BME280;68533;51.090;17.216;2023-10-31T08:20:08;98244.63;;;12.98;100.00
79136;BME280;68533;51.090;17.216;2023-10-31T08:22:35;98246.69;;;13.01;100.00
79136;BME280;68533;51.090;17.216;2023-10-31T08:25:03;98255.78;;;13.01;100.00
79136;BME280;68533;51.090;17.216;2023-10-31T08:27:29;98257.03;;;13.04;100.00
79136;BME280;68533;51.090;17.216;2023-10-31T08:29:55;98275.09;;;13.01;100.00
79136;BME280;68533;51.090;17.216;2023-10-31T08:32:21;98283.56;;;12.80;100.00
79136;BME280;68533;51.090;17.216;2023-10-31T08:34:51;98285.47;;;12.64;100.00
79136;BME280;68533;51.090;17.216;2023-10-31T08:37:21;98297.88;;;12.58;100.00
79136;BME280;68533;51.090;17.216;2023-10-31T08:39:47;98298.09;;;12.53;100.00
79136;BME280;68533;51.090;17.216;2023-10-31T08:42:13;98305.13;;;12.51;100.00
79136;BME280;68533;51.090;17.216;2023-10-31T08:44:40;98311.81;;;12.50;100.00
79136;BME280;68533;51.090;17.216;2023-10-31T08:47:06;98314.22;;;12.51;100.00
79136;BME280;68533;51.090;17.216;2023-10-31T08:49:33;98313.06;;;12.52;100.00
79136;BME280;68533;51.090;17.216;2023-10-31T08:51:59;98312.81;;;12.57;100.00
79136;BME280;68533;51.090;17.216;2023-10-31T08:54:29;98318.34;;;12.57;100.00
79136;BME280;68533;51.090;17.216;2023-10-31T08:56:55;98316.25;;;12.66;100.00
79136;BME280;68533;51.090;17.216;2023-10-31T08:59:21;98322.66;;;12.70;100.00
79136;BME280;68533;51.090;17.216;2023-10-31T09:01:47;98340.13;;;12.74;100.00
79136;BME280;68533;51.090;17.216;2023-10-31T09:04:15;98343.31;;;12.76;100.00
79136;BME280;68533;51.090;17.216;2023-10-31T09:06:41;98361.59;;;12.81;100.00
79136;BME280;68533;51.090;17.216;2023-10-31T09:09:07;98356.63;;;12.87;100.00
79136;BME280;68533;51.090;17.216;2023-10-31T09:11:33;98358.81;;;12.93;100.00
79136;BME280;68533;51.090;17.216;2023-10-31T09:13:59;98368.44;;;12.99;100.00
79136;BME280;68533;51.090;17.216;2023-10-31T09:16:25;98379.78;;;13.10;100.00
79136;BME280;68533;51.090;17.216;2023-10-31T09:18:51;98375.31;;;13.17;100.00
79136;BME280;68533;51.090;17.216;2023-10-31T09:21:18;98371.69;;;13.29;100.00
79136;BME280;68533;51.090;17.216;2023-10-31T09:23:45;98379.56;;;13.43;100.00
79136;BME280;68533;51.090;17.216;2023-10-31T09:26:11;98385.28;;;13.50;100.00
79136;BME280;68533;51.090;17.216;2023-10-31T09:28:41;98386.19;;;13.54;100.00
79136;BME280;68533;51.090;17.216;2023-10-31T09:31:16;98384.44;;;13.62;100.00
79136;BME280;68533;51.090;17.216;2023-10-31T09:33:44;98386.44;;;13.77;100.00
79136;BME280;68533;51.090;17.216;2023-10-31T09:36:10;98382.78;;;13.88;100.00
79136;BME280;68533;51.090;17.216;2023-10-31T09:38:37;98386.25;;;14.01;100.00
79136;BME280;68533;51.090;17.216;2023-10-31T09:41:03;98379.50;;;13.98;100.00
79136;BME280;68533;51.090;17.216;2023-10-31T09:43:33;98379.06;;;14.12;100.00
79136;BME280;68533;51.090;17.216;2023-10-31T09:45:59;98370.22;;;14.22;100.00
79136;BME280;68533;51.090;17.216;2023-10-31T09:48:28;98369.31;;;14.34;100.00
79136;BME280;68533;51.090;17.216;2023-10-31T09:50:57;98380.56;;;14.41;100.00
79136;BME280;68533;51.090;17.216;2023-10-31T09:53:24;98388.75;;;14.37;100.00
79136;BME280;68533;51.090;17.216;2023-10-31T09:55:51;98397.31;;;14.32;100.00
79136;BME280;68533;51.090;17.216;2023-10-31T09:58:20;98393.66;;;14.28;100.00
79136;BME280;68533;51.090;17.216;2023-10-31T10:00:46;98386.56;;;14.43;100.00
79136;BME280;68533;51.090;17.216;2023-10-31T10:03:13;98376.19;;;14.56;100.00
79136;BME280;68533;51.090;17.216;2023-10-31T10:05:44;98379.56;;;14.65;100.00
79136;BME280;68533;51.090;17.216;2023-10-31T10:08:16;98386.69;;;14.66;100.00
79136;BME280;68533;51.090;17.216;2023-10-31T10:10:42;98382.44;;;14.88;100.00
79136;BME280;68533;51.090;17.216;2023-10-31T10:13:11;98385.56;;;14.86;100.00
79136;BME280;68533;51.090;17.216;2023-10-31T10:15:51;98391.47;;;14.85;100.00
79136;BME280;68533;51.090;17.216;2023-10-31T10:18:30;98406.22;;;14.73;100.00
79136;BME280;68533;51.090;17.216;2023-10-31T10:21:01;98412.31;;;14.63;100.00
79136;BME280;68533;51.090;17.216;2023-10-31T10:23:29;98407.06;;;14.42;100.00
79136;BME280;68533;51.090;17.216;2023-10-31T10:26:01;98418.03;;;14.38;100.00
79136;BME280;68533;51.090;17.216;2023-10-31T10:28:28;98429.09;;;14.38;100.00
79136;BME280;68533;51.090;17.216;2023-10-31T10:30:59;98438.34;;;14.30;100.00
79136;BME280;68533;51.090;17.216;2023-10-31T10:33:27;98431.81;;;14.23;100.00
79136;BME280;68533;51.090;17.216;2023-10-31T10:35:54;98436.38;;;14.15;100.00
79136;BME280;68533;51.090;17.216;2023-10-31T10:38:22;98454.44;;;13.97;100.00
79136;BME280;68533;51.090;17.216;2023-10-31T10:40:48;98459.47;;;13.79;100.00
79136;BME280;68533;51.090;17.216;2023-10-31T10:43:25;98469.13;;;13.57;100.00
79136;BME280;68533;51.090;17.216;2023-10-31T10:46:24;98464.72;;;13.41;100.00
79136;BME280;68533;51.090;17.216;2023-10-31T10:49:36;98457.41;;;13.20;100.00
79136;BME280;68533;51.090;17.216;2023-10-31T10:52:38;98464.53;;;13.09;100.00
79136;BME280;68533;51.090;17.216;2023-10-31T10:55:17;98475.50;;;12.81;100.00
79136;BME280;68533;51.090;17.216;2023-10-31T10:58:01;98469.75;;;12.50;100.00
79136;BME280;68533;51.090;17.216;2023-10-31T11:00:34;98468.56;;;12.15;100.00
79136;BME280;68533;51.090;17.216;2023-10-31T11:03:01;98466.56;;;12.03;100.00
79136;BME280;68533;51.090;17.216;2023-10-31T11:05:30;98457.97;;;12.04;100.00
79136;BME280;68533;51.090;17.216;2023-10-31T11:07:57;98448.88;;;12.04;100.00
79136;BME280;68533;51.090;17.216;2023-10-31T11:10:25;98449.69;;;12.04;100.00
79136;BME280;68533;51.090;17.216;2023-10-31T11:12:54;98457.97;;;12.04;100.00
79136;BME280;68533;51.090;17.216;2023-10-31T11:15:41;98443.50;;;12.08;100.00
79136;BME280;68533;51.090;17.216;2023-10-31T11:18:08;98449.94;;;12.12;100.00
79136;BME280;68533;51.090;17.216;2023-10-31T11:20:36;98459.59;;;12.18;100.00
79136;BME280;68533;51.090;17.216;2023-10-31T11:23:02;98458.59;;;12.22;100.00
79136;BME280;68533;51.090;17.216;2023-10-31T11:25:42;98466.38;;;12.32;100.00
79136;BME280;68533;51.090;17.216;2023-10-31T11:28:12;98464.81;;;12.43;100.00
79136;BME280;68533;51.090;17.216;2023-10-31T11:30:40;98473.75;;;12.53;100.00
79136;BME280;68533;51.090;17.216;2023-10-31T11:33:11;98475.16;;;12.59;100.00
79136;BME280;68533;51.090;17.216;2023-10-31T11:35:41;98480.53;;;12.67;100.00
79136;BME280;68533;51.090;17.216;2023-10-31T11:38:10;98479.84;;;12.70;100.00
79136;BME280;68533;51.090;17.216;2023-10-31T11:43:11;98488.59;;;12.72;100.00
79136;BME280;68533;51.090;17.216;2023-10-31T11:45:44;98489.84;;;12.75;100.00
79136;BME280;68533;51.090;17.216;2023-10-31T11:49:03;98491.25;;;12.81;100.00
79136;BME280;68533;51.090;17.216;2023-10-31T11:51:19;98485.34;;;12.82;100.00
79136;BME280;68533;51.090;17.216;2023-10-31T11:54:02;98485.34;;;12.82;100.00
79136;BME280;68533;51.090;17.216;2023-10-31T11:56:31;98489.72;;;12.83;100.00
79136;BME280;68533;51.090;17.216;2023-10-31T11:59:06;98478.56;;;12.92;100.00
79136;BME280;68533;51.090;17.216;2023-10-31T12:01:44;98485.81;;;12.97;100.00
79136;BME280;68533;51.090;17.216;2023-10-31T12:04:21;98478.78;;;12.99;100.00
79136;BME280;68533;51.090;17.216;2023-10-31T12:07:00;98477.09;;;12.95;100.00
79136;BME280;68533;51.090;17.216;2023-10-31T12:09:26;98479.84;;;12.95;100.00
79136;BME280;68533;51.090;17.216;2023-10-31T12:11:54;98484.44;;;12.91;100.00
79136;BME280;68533;51.090;17.216;2023-10-31T12:14:22;98481.66;;;12.91;100.00
79136;BME280;68533;51.090;17.216;2023-10-31T12:16:49;98477.28;;;12.90;100.00
79136;BME280;68533;51.090;17.216;2023-10-31T12:19:15;98473.84;;;12.93;100.00
79136;BME280;68533;51.090;17.216;2023-10-31T12:21:46;98477.56;;;12.97;100.00
79136;BME280;68533;51.090;17.216;2023-10-31T12:24:23;98462.38;;;13.03;100.00
79136;BME280;68533;51.090;17.216;2023-10-31T12:26:54;98467.75;;;13.11;100.00
79136;BME280;68533;51.090;17.216;2023-10-31T12:29:21;98458.00;;;13.14;100.00
79136;BME280;68533;51.090;17.216;2023-10-31T12:31:52;98459.72;;;13.18;100.00
79136;BME280;68533;51.090;17.216;2023-10-31T12:34:21;98466.13;;;13.23;100.00
79136;BME280;68533;51.090;17.216;2023-10-31T12:36:52;98473.00;;;13.29;96.81
79136;BME280;68533;51.090;17.216;2023-10-31T12:39:25;98469.91;;;13.30;99.37
79136;BME280;68533;51.090;17.216;2023-10-31T12:41:56;98475.09;;;13.32;95.95
79136;BME280;68533;51.090;17.216;2023-10-31T12:44:25;98479.91;;;13.35;97.65
79136;BME280;68533;51.090;17.216;2023-10-31T12:46:54;98488.97;;;13.35;96.27